Time;durP1;ratioP1;P1;durP2;ratioP2;P2;SDS_P1;SDS_P2;PMS_P1;PMS_P2;Temp;Humidity;BMP_temperature;BMP_pressure;BME280_temperature;BME280_humidity;BME280_pressure;Samples;Min_cycle;Max_cycle;Signal;HPM_P1;HPM_P2
2023/06/11 00:00:36;;;;;;;8.30;3.80;;;;;;;17.75;100.00;99926.17;105624;1252;60070;-44
2023/06/11 00:03:04;;;;;;;6.50;3.70;;;;;;;17.72;100.00;99928.95;105881;1254;59529;-44
2023/06/11 00:05:32;;;;;;;9.20;3.70;;;;;;;17.70;100.00;99933.56;105895;1253;71800;-44
2023/06/11 00:08:00;;;;;;;6.30;3.60;;;;;;;17.70;100.00;99935.86;105875;1252;65197;-42
2023/06/11 00:10:28;;;;;;;8.50;3.60;;;;;;;17.69;100.00;99936.63;105867;1253;71405;-43
2023/06/11 00:12:56;;;;;;;9.00;3.60;;;;;;;17.66;100.00;99937.79;105789;1254;59737;-43
2023/06/11 00:15:24;;;;;;;5.10;3.70;;;;;;;17.65;100.00;99944.14;105850;1257;59613;-43
2023/06/11 00:17:51;;;;;;;6.20;3.80;;;;;;;17.64;100.00;99945.92;105884;1251;71864;-42
2023/06/11 00:20:20;;;;;;;10.40;3.90;;;;;;;17.62;100.00;99944.81;105848;1253;63935;-43
2023/06/11 00:22:49;;;;;;;10.20;4.30;;;;;;;17.60;100.00;99944.41;105890;1256;71442;-43
2023/06/11 00:25:17;;;;;;;5.80;3.40;;;;;;;17.58;100.00;99944.73;105893;1253;61846;-43
2023/06/11 00:27:44;;;;;;;7.80;4.10;;;;;;;17.56;100.00;99953.73;105887;1257;60322;-43
2023/06/11 00:30:12;;;;;;;6.30;4.30;;;;;;;17.53;100.00;99962.04;105830;1251;73934;-43
2023/06/11 00:32:40;;;;;;;4.60;3.70;;;;;;;17.50;100.00;99968.15;105692;1253;65244;-43
2023/06/11 00:35:08;;;;;;;9.20;4.10;;;;;;;17.48;100.00;99970.55;105879;1257;71379;-42
2023/06/11 00:37:38;;;;;;;5.80;3.90;;;;;;;17.47;100.00;99975.33;105879;1252;60620;-43
2023/06/11 00:40:08;;;;;;;10.80;4.10;;;;;;;17.43;100.00;99979.52;105893;1252;60346;-43
2023/06/11 00:42:36;;;;;;;9.70;4.30;;;;;;;17.41;100.00;99981.20;105892;1257;73893;-43
2023/06/11 00:45:05;;;;;;;6.30;4.10;;;;;;;17.38;100.00;99989.55;105919;1253;65141;-42
2023/06/11 00:47:36;;;;;;;6.50;4.80;;;;;;;17.35;100.00;99997.23;105689;1259;72606;-44
2023/06/11 00:50:05;;;;;;;16.00;4.10;;;;;;;17.32;100.00;100000.89;105896;1257;60565;-43
2023/06/11 00:52:33;;;;;;;11.50;4.10;;;;;;;17.29;100.00;100015.66;105907;1254;60422;-43
2023/06/11 00:55:02;;;;;;;5.70;4.00;;;;;;;17.27;100.00;100027.33;105859;1254;72662;-43
2023/06/11 00:57:31;;;;;;;8.50;4.30;;;;;;;17.25;100.00;100045.20;105912;1257;64089;-42
2023/06/11 01:00:00;;;;;;;8.40;4.10;;;;;;;17.25;100.00;100070.11;105871;1257;71396;-43
2023/06/11 01:02:31;;;;;;;5.60;4.30;;;;;;;17.25;100.00;100092.09;105709;1254;60620;-42
2023/06/11 01:05:00;;;;;;;10.70;4.70;;;;;;;17.25;100.00;100119.83;105902;1253;60516;-43
2023/06/11 01:07:31;;;;;;;6.90;4.20;;;;;;;17.24;100.00;100163.09;105878;1253;73818;-43
2023/06/11 01:10:02;;;;;;;14.90;4.10;;;;;;;17.22;100.00;100188.84;105723;1255;63942;-42
2023/06/11 01:12:34;;;;;;;5.00;4.20;;;;;;;17.20;100.00;100221.02;105932;1253;71814;-43
2023/06/11 01:15:02;;;;;;;11.10;4.40;;;;;;;17.17;100.00;100253.23;105842;1257;60863;-43
2023/06/11 01:17:50;;;;;;;6.50;3.80;;;;;;;17.14;100.00;100275.85;105888;1256;60412;-42
2023/06/11 01:20:34;;;;;;;13.80;4.90;;;;;;;17.12;100.00;100305.96;105738;1253;73175;-42
2023/06/11 01:23:17;;;;;;;6.30;3.70;;;;;;;17.08;100.00;100333.31;105902;1256;65523;-44
2023/06/11 01:26:14;;;;;;;8.80;4.60;;;;;;;17.04;100.00;100356.88;105845;1252;71450;-43
2023/06/11 01:28:44;;;;;;;11.90;4.70;;;;;;;17.02;100.00;100377.04;105902;1252;60523;-43
2023/06/11 01:31:14;;;;;;;9.90;4.80;;;;;;;17.00;100.00;100393.50;105893;1256;60453;-43
2023/06/11 01:33:43;;;;;;;11.70;4.00;;;;;;;16.97;100.00;100405.64;105678;1258;73813;-43
2023/06/11 01:36:14;;;;;;;5.90;4.20;;;;;;;16.93;100.00;100410.66;105863;1254;64466;-44
2023/06/11 01:38:42;;;;;;;12.00;5.00;;;;;;;16.91;100.00;100410.40;105872;1254;71334;-43
2023/06/11 01:44:29;;;;;;;5.80;4.40;;;;;;;16.86;100.00;100410.33;102751;1294;601382;-42
2023/06/11 01:46:56;;;;;;;9.70;4.80;;;;;;;16.81;100.00;100421.17;105132;1264;61699;-42
2023/06/11 01:49:25;;;;;;;11.80;5.20;;;;;;;16.78;100.00;100430.36;105486;1260;59209;-42
2023/06/11 01:51:53;;;;;;;9.20;5.30;;;;;;;16.73;100.00;100438.06;105213;1260;70948;-42
2023/06/11 01:54:21;;;;;;;6.50;4.60;;;;;;;16.69;100.00;100439.29;105426;1260;64797;-42
2023/06/11 01:56:49;;;;;;;12.00;4.70;;;;;;;16.64;100.00;100440.55;105404;1263;72588;-42
2023/06/11 01:59:17;;;;;;;9.70;4.80;;;;;;;16.61;100.00;100448.52;105393;1260;216379;-42
2023/06/11 02:01:52;;;;;;;8.90;5.40;;;;;;;16.57;100.00;100456.19;105634;1259;59187;-42
2023/06/11 02:04:20;;;;;;;9.90;4.80;;;;;;;16.53;100.00;100460.89;105516;1256;70940;-42
2023/06/11 02:06:49;;;;;;;7.80;4.80;;;;;;;16.48;100.00;100470.67;105495;1262;65166;-42
2023/06/11 02:09:16;;;;;;;11.30;5.20;;;;;;;16.43;100.00;100476.29;105569;1256;71438;-42
2023/06/11 02:11:44;;;;;;;15.40;4.90;;;;;;;16.40;100.00;100476.59;105576;1261;60457;-42
2023/06/11 02:14:12;;;;;;;12.00;5.00;;;;;;;16.37;100.00;100480.01;105471;1264;59995;-42
2023/06/11 02:16:40;;;;;;;11.20;4.50;;;;;;;16.35;100.00;100480.60;105523;1258;72215;-42
2023/06/11 02:19:08;;;;;;;7.70;4.50;;;;;;;16.34;100.00;100482.08;105515;1259;65307;-42
2023/06/11 02:21:36;;;;;;;11.80;4.60;;;;;;;16.34;100.00;100480.69;105522;1260;72426;-42
2023/06/11 02:24:04;;;;;;;8.10;4.90;;;;;;;16.33;100.00;100481.23;105509;1260;60372;-44
2023/06/11 02:26:32;;;;;;;17.20;4.90;;;;;;;16.33;100.00;100480.36;105254;1259;59542;-42
2023/06/11 02:29:00;;;;;;;13.40;4.80;;;;;;;16.35;100.00;100476.81;105430;1257;71919;-48
2023/06/11 02:31:28;;;;;;;9.80;5.10;;;;;;;16.35;100.00;100476.63;105264;1259;64186;-43
2023/06/11 02:33:56;;;;;;;10.30;4.60;;;;;;;16.37;100.00;100475.83;105507;1262;70661;-43
2023/06/11 02:36:23;;;;;;;11.50;4.80;;;;;;;16.40;100.00;100471.21;105428;1257;60709;-43
2023/06/11 02:38:51;;;;;;;7.80;4.30;;;;;;;16.41;100.00;100465.91;105566;1259;59532;-43
2023/06/11 02:41:19;;;;;;;12.60;4.80;;;;;;;16.42;100.00;100459.98;105647;1253;71817;-43
2023/06/11 02:43:46;;;;;;;9.90;4.50;;;;;;;16.44;100.00;100448.57;105661;1254;64095;-43
2023/06/11 02:46:15;;;;;;;11.90;4.50;;;;;;;16.46;100.00;100435.23;105746;1257;70449;-43
2023/06/11 02:48:43;;;;;;;7.20;3.80;;;;;;;16.48;100.00;100418.23;105740;1257;60605;-43
2023/06/11 02:51:11;;;;;;;6.70;4.00;;;;;;;16.51;100.00;100396.52;105798;1252;59979;-43
2023/06/11 02:53:38;;;;;;;10.60;4.40;;;;;;;16.54;100.00;100377.92;105757;1257;72101;-43
2023/06/11 02:56:06;;;;;;;8.80;4.20;;;;;;;16.56;100.00;100352.08;105673;1257;63942;-43
2023/06/11 02:58:34;;;;;;;9.80;4.50;;;;;;;16.57;100.00;100331.48;105759;1253;71701;-43
2023/06/11 03:01:03;;;;;;;11.60;4.60;;;;;;;16.60;100.00;100308.54;105577;1260;60012;-43
2023/06/11 03:03:30;;;;;;;19.40;4.90;;;;;;;16.60;100.00;100280.11;105650;1253;59979;-43
2023/06/11 03:05:59;;;;;;;14.50;4.50;;;;;;;16.61;100.00;100250.98;105677;1257;73506;-43
2023/06/11 03:08:28;;;;;;;13.50;4.60;;;;;;;16.63;100.00;100228.27;105709;1257;65139;-43
2023/06/11 03:10:56;;;;;;;8.90;4.60;;;;;;;16.65;100.00;100205.66;105675;1254;72640;-43
2023/06/11 03:13:24;;;;;;;13.20;4.50;;;;;;;16.68;100.00;100193.52;105633;1254;60698;-43
2023/06/11 03:15:52;;;;;;;10.10;4.50;;;;;;;16.70;100.00;100173.23;105746;1257;59941;-43
2023/06/11 03:18:20;;;;;;;17.60;5.60;;;;;;;16.71;100.00;100157.13;105653;1258;72966;-42
2023/06/11 03:20:48;;;;;;;9.80;4.50;;;;;;;16.73;100.00;100141.56;105639;1255;63996;-43
2023/06/11 03:23:16;;;;;;;9.00;4.10;;;;;;;16.74;100.00;100130.36;105630;1259;72640;-43
2023/06/11 03:25:43;;;;;;;9.60;5.20;;;;;;;16.75;100.00;100120.04;105676;1254;61680;-43
2023/06/11 03:28:11;;;;;;;16.00;4.00;;;;;;;16.75;100.00;100109.91;105696;1257;61179;-43
2023/06/11 03:30:39;;;;;;;7.70;4.40;;;;;;;16.75;100.00;100093.73;105685;1253;73025;-44
2023/06/11 03:33:07;;;;;;;12.90;4.90;;;;;;;16.75;100.00;100089.53;105661;1255;63929;-43
2023/06/11 03:35:35;;;;;;;19.00;4.00;;;;;;;16.77;100.00;100078.08;105722;1253;70153;-43
2023/06/11 03:38:09;;;;;;;6.20;3.90;;;;;;;16.80;100.00;100068.53;105662;1253;59628;-43
2023/06/11 03:40:37;;;;;;;8.60;4.40;;;;;;;16.85;100.00;100072.81;105702;1254;59587;-43
2023/06/11 03:43:05;;;;;;;14.50;4.90;;;;;;;16.92;100.00;100063.57;105672;1258;73002;-43
2023/06/11 03:45:34;;;;;;;13.10;4.60;;;;;;;16.97;100.00;100050.27;105712;1259;64034;-43
2023/06/11 03:48:04;;;;;;;15.60;4.40;;;;;;;17.02;100.00;100031.58;105713;1254;71744;-43
2023/06/11 03:50:32;;;;;;;15.10;4.20;;;;;;;17.04;100.00;100015.59;105682;1256;59742;-43
2023/06/11 03:53:00;;;;;;;9.70;4.10;;;;;;;17.06;100.00;99999.27;105702;1257;59533;-43
2023/06/11 03:55:29;;;;;;;20.80;4.30;;;;;;;17.10;100.00;99990.36;105697;1253;71887;-43
2023/06/11 03:57:57;;;;;;;8.70;4.10;;;;;;;17.12;100.00;99972.80;105665;1254;65158;-43
2023/06/11 04:00:26;;;;;;;13.90;3.90;;;;;;;17.17;100.00;99967.48;105666;1254;71709;-43
2023/06/11 04:02:54;;;;;;;15.80;4.30;;;;;;;17.23;100.00;99962.30;105657;1259;59995;-44
2023/06/11 04:05:27;;;;;;;11.40;3.90;;;;;;;17.26;100.00;99958.33;105747;1254;60897;-43
2023/06/11 04:07:56;;;;;;;8.70;4.30;;;;;;;17.29;100.00;99951.89;105681;1257;72062;-42
2023/06/11 04:10:24;;;;;;;6.90;3.70;;;;;;;17.32;100.00;99947.86;105652;1259;64148;-43
2023/06/11 04:12:52;;;;;;;7.50;3.70;;;;;;;17.40;100.00;99943.29;105703;1259;71409;-44
2023/06/11 04:15:20;;;;;;;10.90;4.40;;;;;;;17.45;100.00;99939.49;105676;1253;59622;-43
2023/06/11 04:17:48;;;;;;;9.00;4.50;;;;;;;17.54;100.00;99936.23;105715;1253;59600;-43
2023/06/11 04:20:16;;;;;;;11.00;4.50;;;;;;;17.61;100.00;99933.58;105700;1253;72791;-43
2023/06/11 04:22:44;;;;;;;9.90;3.70;;;;;;;17.67;100.00;99933.39;105663;1259;65175;-43
2023/06/11 04:25:12;;;;;;;11.90;3.90;;;;;;;17.75;100.00;99934.66;105739;1253;72439;-43
2023/06/11 04:27:41;;;;;;;8.70;4.10;;;;;;;17.80;100.00;99941.53;105704;1253;59704;-43
2023/06/11 04:30:12;;;;;;;13.20;4.40;;;;;;;17.80;100.00;99949.23;105721;1259;59605;-43
2023/06/11 04:32:41;;;;;;;13.50;4.10;;;;;;;17.76;100.00;99953.81;105690;1259;71752;-43
2023/06/11 04:35:10;;;;;;;8.40;4.10;;;;;;;17.78;100.00;99957.58;105698;1260;64071;-43
2023/06/11 04:37:45;;;;;;;9.10;3.70;;;;;;;17.82;100.00;99960.48;105674;1257;71616;-43
2023/06/11 04:40:20;;;;;;;12.30;4.10;;;;;;;17.85;100.00;99965.36;105697;1254;59610;-43
2023/06/11 04:42:48;;;;;;;6.90;3.80;;;;;;;17.83;100.00;99970.71;105737;1254;59995;-43
2023/06/11 04:45:20;;;;;;;11.10;3.80;;;;;;;17.81;100.00;99979.04;105708;1253;73065;-43
2023/06/11 04:47:49;;;;;;;8.30;4.00;;;;;;;17.80;100.00;99988.14;105719;1253;64045;-43
2023/06/11 04:50:20;;;;;;;8.50;3.80;;;;;;;17.80;100.00;100001.22;105692;1259;71506;-43
2023/06/11 04:52:53;;;;;;;11.40;4.20;;;;;;;17.84;100.00;100005.92;105649;1253;59615;-43
2023/06/11 04:55:24;;;;;;;14.70;3.90;;;;;;;17.90;100.00;100011.85;105700;1253;59977;-46
2023/06/11 04:57:54;;;;;;;11.90;4.40;;;;;;;17.97;100.00;100016.70;105448;1256;73131;-46
2023/06/11 05:00:24;;;;;;;6.40;3.60;;;;;;;18.13;100.00;100016.70;105765;1253;64009;-46
2023/06/11 05:02:53;;;;;;;10.50;3.70;;;;;;;18.32;100.00;100023.46;105699;1253;71672;-43
2023/06/11 05:05:21;;;;;;;16.50;3.60;;;;;;;18.55;100.00;100016.04;105678;1253;60557;-43
2023/06/11 05:07:49;;;;;;;8.90;3.90;;;;;;;18.77;100.00;100016.52;105699;1254;59549;-43
2023/06/11 05:10:18;;;;;;;16.50;4.50;;;;;;;18.97;100.00;100045.61;105690;1257;72042;-44
2023/06/11 05:12:46;;;;;;;6.40;3.70;;;;;;;19.09;100.00;100078.46;105684;1253;64094;-43
2023/06/11 05:15:16;;;;;;;9.30;3.70;;;;;;;19.23;100.00;100086.03;105696;1257;73176;-43
2023/06/11 05:17:45;;;;;;;16.40;4.00;;;;;;;19.45;100.00;100083.11;105665;1260;59985;-43
2023/06/11 05:20:15;;;;;;;13.50;3.80;;;;;;;19.71;100.00;100098.31;105701;1253;60021;-43
2023/06/11 05:22:45;;;;;;;6.40;4.00;;;;;;;19.91;100.00;100133.85;105717;1256;71216;-43
2023/06/11 05:25:19;;;;;;;10.90;4.40;;;;;;;20.09;100.00;100144.66;105715;1253;63260;-43
2023/06/11 05:27:51;;;;;;;15.30;4.20;;;;;;;20.24;100.00;100156.31;105659;1253;72592;-43
2023/06/11 05:30:24;;;;;;;11.20;3.40;;;;;;;20.33;100.00;100174.84;105689;1254;59801;-43
2023/06/11 05:32:56;;;;;;;13.50;4.20;;;;;;;20.48;100.00;100187.42;105801;1253;59589;-44
2023/06/11 05:35:23;;;;;;;11.00;3.40;;;;;;;20.60;100.00;100180.66;105688;1253;71783;-43
2023/06/11 05:37:52;;;;;;;14.40;4.10;;;;;;;20.74;100.00;100187.98;105706;1253;64492;-43
2023/06/11 05:40:21;;;;;;;18.20;3.20;;;;;;;20.81;100.00;100203.02;105696;1258;71435;-44
2023/06/11 05:42:50;;;;;;;19.70;4.00;;;;;;;20.77;100.00;100210.97;105693;1253;60005;-44
2023/06/11 05:45:19;;;;;;;13.70;3.90;;;;;;;20.61;100.00;100225.67;105721;1256;59525;-43
2023/06/11 05:47:47;;;;;;;7.90;3.50;;;;;;;20.46;100.00;100245.39;105715;1259;73003;-44
2023/06/11 05:50:15;;;;;;;10.20;3.70;;;;;;;20.39;100.00;100236.36;105695;1253;65244;-44
2023/06/11 05:52:44;;;;;;;80.00;5.90;;;;;;;20.33;100.00;100227.08;105749;1253;71435;-43
2023/06/11 05:55:12;;;;;;;17.40;4.00;;;;;;;20.39;100.00;100214.80;105674;1260;60514;-44
2023/06/11 05:57:40;;;;;;;9.80;3.50;;;;;;;20.45;100.00;100218.62;105703;1256;60351;-43
2023/06/11 06:00:12;;;;;;;12.50;3.70;;;;;;;20.51;100.00;100221.38;105680;1253;72690;-44
2023/06/11 06:02:44;;;;;;;13.60;5.40;;;;;;;20.44;100.00;100223.60;105678;1253;64194;-43
2023/06/11 06:05:16;;;;;;;14.60;3.50;;;;;;;20.46;100.00;100222.93;105663;1254;70800;-44
2023/06/11 06:07:45;;;;;;;10.80;3.90;;;;;;;20.58;100.00;100217.98;105679;1253;60488;-44
2023/06/11 06:10:13;;;;;;;20.30;4.20;;;;;;;20.60;100.00;100217.87;105728;1253;60454;-43
2023/06/11 06:12:41;;;;;;;16.10;3.50;;;;;;;20.67;100.00;100214.59;105693;1255;72635;-42
2023/06/11 06:15:10;;;;;;;11.70;3.30;;;;;;;20.67;100.00;100220.02;105727;1254;64107;-42
2023/06/11 06:17:40;;;;;;;11.80;3.60;;;;;;;20.71;100.00;100221.04;105698;1253;71366;-42
2023/06/11 06:20:10;;;;;;;8.70;3.90;;;;;;;20.70;100.00;100227.73;105698;1255;61911;-43
2023/06/11 06:22:38;;;;;;;4.30;3.70;;;;;;;20.69;100.00;100230.04;105721;1257;60443;-42
2023/06/11 06:25:07;;;;;;;15.70;3.60;;;;;;;20.69;100.00;100224.27;105663;1254;73867;-42
2023/06/11 06:27:36;;;;;;;12.10;3.70;;;;;;;20.65;100.00;100224.68;105703;1254;64026;-43
2023/06/11 06:30:06;;;;;;;21.90;4.90;;;;;;;20.59;100.00;100223.52;105714;1255;71437;-43
2023/06/11 06:32:36;;;;;;;13.50;3.70;;;;;;;20.52;100.00;100216.90;105721;1257;60528;-42
2023/06/11 06:35:05;;;;;;;16.40;3.80;;;;;;;20.44;100.00;100220.23;105701;1253;60345;-43
2023/06/11 06:37:35;;;;;;;8.90;3.70;;;;;;;20.38;100.00;100220.97;105673;1253;72721;-43
2023/06/11 06:40:04;;;;;;;14.40;3.50;;;;;;;20.46;100.00;100208.36;105755;1255;64030;-43
2023/06/11 06:42:32;;;;;;;16.20;3.90;;;;;;;20.55;100.00;100202.89;105678;1253;72628;-43
2023/06/11 06:45:01;;;;;;;7.20;3.90;;;;;;;20.71;100.00;100195.04;105711;1253;60512;-43
2023/06/11 06:47:29;;;;;;;19.30;3.80;;;;;;;20.83;100.00;100196.04;105650;1253;60520;-42
2023/06/11 06:49:57;;;;;;;11.70;3.50;;;;;;;20.96;100.00;100198.90;105661;1253;74267;-41
2023/06/11 06:52:25;;;;;;;12.10;3.30;;;;;;;21.10;100.00;100206.00;105689;1257;64218;-42
2023/06/11 06:54:52;;;;;;;18.10;3.70;;;;;;;21.29;100.00;100196.34;105621;1253;72798;-43
2023/06/11 06:57:20;;;;;;;19.60;3.90;;;;;;;21.44;100.00;100198.84;105693;1258;60537;-42
2023/06/11 06:59:48;;;;;;;13.40;3.90;;;;;;;21.56;100.00;100203.84;105705;1253;60484;-42
2023/06/11 07:02:16;;;;;;;16.10;4.00;;;;;;;21.64;100.00;100199.60;105701;1253;72854;-43
2023/06/11 07:04:45;;;;;;;10.20;3.50;;;;;;;21.64;100.00;100219.83;105625;1257;64118;-43
2023/06/11 07:07:14;;;;;;;12.90;3.70;;;;;;;21.72;100.00;100218.61;105493;1259;71472;-43
2023/06/11 07:09:42;;;;;;;12.70;4.00;;;;;;;21.86;100.00;100221.65;105664;1253;60418;-44
2023/06/11 07:12:10;;;;;;;15.70;3.90;;;;;;;22.04;100.00;100212.18;105751;1257;60374;-43
2023/06/11 07:14:38;;;;;;;12.10;3.50;;;;;;;22.12;100.00;100212.85;105737;1257;72625;-43
2023/06/11 07:17:07;;;;;;;19.50;4.30;;;;;;;22.13;100.00;100222.08;105686;1253;64236;-44
2023/06/11 07:19:34;;;;;;;18.40;3.50;;;;;;;22.19;100.00;100224.25;105659;1253;72754;-44
2023/06/11 07:22:02;;;;;;;7.00;3.70;;;;;;;22.25;100.00;100231.05;105658;1260;60534;-44
2023/06/11 07:24:32;;;;;;;21.30;4.20;;;;;;;22.34;100.00;100233.09;105692;1257;60402;-43
2023/06/11 07:27:00;;;;;;;14.90;4.40;;;;;;;22.35;100.00;100218.23;105669;1253;72637;-43
2023/06/11 07:29:28;;;;;;;15.00;3.90;;;;;;;22.28;99.78;100224.55;105631;1257;64235;-44
2023/06/11 07:31:55;;;;;;;16.40;3.90;;;;;;;22.17;100.00;100235.33;105591;1260;72767;-46
2023/06/11 07:34:24;;;;;;;25.90;4.90;;;;;;;22.12;100.00;100240.45;105719;1253;60557;-46
2023/06/11 07:36:52;;;;;;;6.90;3.20;;;;;;;22.13;100.00;100241.05;105688;1257;60332;-43
2023/06/11 07:39:20;;;;;;;16.70;3.60;;;;;;;22.29;99.99;100230.62;105709;1253;72705;-43
2023/06/11 07:41:47;;;;;;;9.10;3.70;;;;;;;22.43;98.30;100225.09;105658;1253;64007;-42
2023/06/11 07:44:15;;;;;;;11.70;4.00;;;;;;;22.49;95.99;100223.75;105701;1254;72738;-42
2023/06/11 07:46:46;;;;;;;10.80;3.70;;;;;;;22.54;95.55;100232.17;105666;1253;60559;-43
2023/06/11 07:49:14;;;;;;;14.90;3.40;;;;;;;22.54;89.88;100235.19;105647;1253;60838;-43
2023/06/11 07:51:44;;;;;;;18.70;3.70;;;;;;;22.53;89.84;100231.88;105719;1253;74252;-43
2023/06/11 07:54:13;;;;;;;14.30;3.30;;;;;;;22.54;92.89;100246.64;105743;1257;65271;-43
2023/06/11 07:56:41;;;;;;;12.20;3.90;;;;;;;22.54;83.60;100225.86;105694;1254;71374;-43
2023/06/11 07:59:09;;;;;;;9.90;3.20;;;;;;;22.48;88.03;100245.29;105735;1253;60883;-43
2023/06/11 08:01:37;;;;;;;14.60;3.90;;;;;;;22.41;90.00;100256.27;105633;1259;60388;-43
2023/06/11 08:04:05;;;;;;;18.50;3.70;;;;;;;22.39;96.96;100261.86;105676;1253;72957;-43
2023/06/11 08:06:33;;;;;;;22.60;3.90;;;;;;;22.45;95.18;100259.05;105666;1257;64039;-43
2023/06/11 08:09:00;;;;;;;11.70;3.50;;;;;;;22.48;86.97;100230.35;105691;1258;71415;-43
2023/06/11 08:11:28;;;;;;;8.60;3.40;;;;;;;22.47;88.17;100250.45;105672;1258;60535;-43
2023/06/11 08:13:56;;;;;;;19.40;4.10;;;;;;;22.57;86.64;100250.05;105709;1259;60348;-43
2023/06/11 08:16:23;;;;;;;24.50;4.30;;;;;;;22.54;83.76;100244.00;105680;1257;73070;-43
2023/06/11 08:18:51;;;;;;;12.90;4.30;;;;;;;22.51;85.01;100249.66;105689;1253;65356;-43
2023/06/11 08:21:19;;;;;;;12.20;4.10;;;;;;;22.30;85.62;100255.33;105680;1254;73156;-43
2023/06/11 08:23:48;;;;;;;14.10;3.80;;;;;;;22.15;94.04;100270.63;105688;1257;60480;-43
2023/06/11 08:26:16;;;;;;;13.40;3.40;;;;;;;22.13;99.84;100281.84;105746;1257;60397;-43
2023/06/11 08:28:43;;;;;;;7.30;3.40;;;;;;;22.25;100.00;100266.73;105643;1259;72890;-43
2023/06/11 08:31:12;;;;;;;9.50;3.10;;;;;;;22.39;90.24;100235.71;105684;1253;64318;-43
2023/06/11 08:33:40;;;;;;;17.60;4.00;;;;;;;22.45;86.06;100239.90;105679;1259;71419;-44
2023/06/11 08:36:08;;;;;;;17.90;4.20;;;;;;;22.51;86.88;100245.98;105671;1259;62069;-43
2023/06/11 08:38:35;;;;;;;7.00;3.40;;;;;;;22.54;84.04;100242.54;105656;1254;60358;-43
2023/06/11 08:41:05;;;;;;;13.80;4.30;;;;;;;22.60;83.89;100238.24;105674;1253;72642;-43
2023/06/11 08:43:33;;;;;;;13.10;3.70;;;;;;;22.66;84.58;100242.06;105683;1258;64103;-44
2023/06/11 08:46:01;;;;;;;22.70;4.40;;;;;;;22.72;81.97;100233.71;105738;1253;71690;-43
2023/06/11 08:48:29;;;;;;;14.90;4.50;;;;;;;22.68;78.30;100231.55;105672;1258;60531;-44
2023/06/11 08:50:59;;;;;;;7.20;3.30;;;;;;;22.58;79.17;100242.09;105759;1257;60311;-42
2023/06/11 08:53:27;;;;;;;15.90;3.90;;;;;;;22.59;80.85;100246.06;105700;1253;73861;-42
2023/06/11 08:55:55;;;;;;;35.90;23.80;;;;;;;22.64;80.74;100248.39;105728;1253;65161;-43
2023/06/11 08:58:23;;;;;;;158.70;109.20;;;;;;;22.72;84.08;100259.59;105661;1259;71404;-43
2023/06/11 09:00:51;;;;;;;23.80;10.00;;;;;;;22.92;80.65;100249.88;105741;1253;60537;-43
2023/06/11 09:03:19;;;;;;;16.10;7.90;;;;;;;23.10;77.22;100229.86;105671;1259;60338;-44
2023/06/11 09:05:47;;;;;;;22.60;8.70;;;;;;;23.19;75.31;100232.92;105764;1257;72148;-43
2023/06/11 09:08:15;;;;;;;23.40;9.50;;;;;;;23.23;73.79;100232.26;105725;1253;65103;-43
2023/06/11 09:10:50;;;;;;;60.30;40.00;;;;;;;23.23;74.65;100246.48;105652;1259;71406;-43
2023/06/11 09:13:18;;;;;;;23.40;18.10;;;;;;;23.32;72.59;100234.64;105740;1257;60470;-44
2023/06/11 09:15:49;;;;;;;32.90;22.90;;;;;;;23.40;73.80;100255.48;105721;1256;60496;-43
2023/06/11 09:18:22;;;;;;;17.50;5.20;;;;;;;23.52;71.16;100236.81;105751;1253;72550;-43
2023/06/11 09:21:03;;;;;;;18.90;3.90;;;;;;;23.51;67.22;100202.41;105733;1257;63906;-44
2023/06/11 09:23:34;;;;;;;17.30;5.90;;;;;;;23.40;70.30;100258.69;105671;1259;71471;-44
2023/06/11 09:26:02;;;;;;;9.90;3.80;;;;;;;23.54;71.62;100263.95;105633;1256;60457;-43
2023/06/11 09:28:34;;;;;;;23.20;4.20;;;;;;;23.59;69.40;100245.29;105719;1258;60342;-43
2023/06/11 09:31:03;;;;;;;12.10;4.70;;;;;;;23.56;67.91;100236.14;105694;1253;72606;-42
2023/06/11 09:33:31;;;;;;;9.00;4.20;;;;;;;23.38;67.46;100246.46;105800;1257;64054;-43
2023/06/11 09:36:00;;;;;;;10.00;3.90;;;;;;;23.24;69.73;100280.77;105774;1259;71466;-42
2023/06/11 09:38:27;;;;;;;14.50;4.10;;;;;;;23.12;71.52;100296.27;105658;1254;60531;-42
2023/06/11 09:40:56;;;;;;;15.10;4.60;;;;;;;22.92;73.38;100301.19;105654;1259;60419;-43
2023/06/11 09:43:24;;;;;;;9.00;4.40;;;;;;;22.77;75.47;100300.87;105670;1253;73945;-42
2023/06/11 09:45:53;;;;;;;7.70;3.80;;;;;;;22.62;79.13;100310.91;105732;1257;63917;-43
2023/06/11 09:48:22;;;;;;;6.90;3.70;;;;;;;22.45;89.18;100330.00;105814;1253;72606;-43
2023/06/11 09:50:51;;;;;;;9.00;4.50;;;;;;;22.38;96.30;100327.15;105696;1258;60538;-43
2023/06/11 09:53:20;;;;;;;21.90;4.20;;;;;;;22.38;95.88;100319.94;105701;1256;60343;-43
2023/06/11 09:55:51;;;;;;;11.10;5.10;;;;;;;22.50;96.68;100311.38;105765;1253;73758;-44
2023/06/11 09:58:22;;;;;;;9.90;4.40;;;;;;;22.73;91.35;100290.27;105729;1259;64139;-44
2023/06/11 10:00:52;;;;;;;8.10;5.20;;;;;;;22.94;92.27;100293.33;105566;1253;72616;-46
2023/06/11 10:03:20;;;;;;;185.40;14.10;;;;;;;23.23;88.36;100279.30;105714;1253;60414;-43
2023/06/11 10:05:48;;;;;;;14.30;4.60;;;;;;;23.62;76.93;100234.63;105697;1259;60515;-43
2023/06/11 10:08:21;;;;;;;15.10;5.60;;;;;;;23.93;70.65;100212.20;105632;1259;73129;-42
2023/06/11 10:10:51;;;;;;;13.90;3.60;;;;;;;24.17;68.09;100202.76;105739;1253;65159;-42
2023/06/11 10:13:32;;;;;;;39.00;19.30;;;;;;;24.30;65.94;100193.26;105778;1257;71409;-43
2023/06/11 10:16:04;;;;;;;11.00;4.60;;;;;;;24.61;66.38;100207.02;105683;1256;60528;-42
2023/06/11 10:18:32;;;;;;;12.50;6.20;;;;;;;25.07;62.35;100134.08;105840;1253;60528;-42
2023/06/11 10:21:01;;;;;;;34.40;17.10;;;;;;;25.32;60.76;100120.10;105813;1257;73809;-42
2023/06/11 10:23:41;;;;;;;5.80;4.30;;;;;;;25.33;59.77;100119.51;105782;1253;65781;-43
2023/06/11 10:26:09;;;;;;;13.30;3.40;;;;;;;25.25;60.31;100149.11;105839;1257;71364;-42
2023/06/11 10:28:48;;;;;;;31.50;13.20;;;;;;;25.28;59.22;100131.02;105642;1256;60453;-43
2023/06/11 10:31:29;;;;;;;17.60;8.30;;;;;;;25.17;59.59;100145.02;105636;1253;60438;-42
2023/06/11 10:34:02;;;;;;;23.60;6.00;;;;;;;25.07;59.96;100168.50;105686;1255;73915;-42
2023/06/11 10:36:37;;;;;;;9.50;5.90;;;;;;;25.01;59.98;100170.08;105710;1259;64046;-43
2023/06/11 10:39:22;;;;;;;10.00;4.00;;;;;;;25.05;61.18;100204.69;105799;1258;73067;-43
2023/06/11 10:42:01;;;;;;;9.50;3.80;;;;;;;25.45;62.57;100223.21;105701;1255;60534;-43
2023/06/11 10:44:32;;;;;;;40.10;4.90;;;;;;;26.12;58.70;100108.06;105796;1258;60398;-43
2023/06/11 10:47:00;;;;;;;9.50;3.20;;;;;;;26.52;55.56;100024.57;105755;1259;73909;-43
2023/06/11 10:49:28;;;;;;;27.60;5.10;;;;;;;26.63;53.97;99988.13;105798;1253;63960;-43
2023/06/11 10:51:56;;;;;;;8.70;2.90;;;;;;;26.40;54.46;100031.32;105659;1254;71436;-43
2023/06/11 10:54:32;;;;;;;11.80;2.90;;;;;;;25.98;54.86;100077.85;105672;1256;60617;-43
2023/06/11 10:57:01;;;;;;;8.90;4.20;;;;;;;25.65;55.57;100117.70;105816;1253;60527;-43
2023/06/11 10:59:34;;;;;;;8.90;4.00;;;;;;;25.48;55.99;100124.98;105781;1253;72545;-42
2023/06/11 11:02:02;;;;;;;12.10;4.00;;;;;;;25.33;56.09;100130.44;105763;1258;65769;-43
2023/06/11 11:04:30;;;;;;;13.30;3.90;;;;;;;25.27;56.46;100151.79;105666;1253;72652;-44
2023/06/11 11:07:08;;;;;;;7.80;3.90;;;;;;;25.34;56.28;100142.39;105683;1259;60445;-44
2023/06/11 11:09:36;;;;;;;16.80;4.00;;;;;;;25.49;56.77;100161.42;105789;1258;60570;-43
2023/06/11 11:12:06;;;;;;;18.80;5.90;;;;;;;25.71;56.62;100148.78;105764;1259;72921;-43
2023/06/11 11:14:33;;;;;;;19.50;6.40;;;;;;;25.85;56.75;100154.77;105788;1258;65339;-43
2023/06/11 11:17:02;;;;;;;9.50;3.20;;;;;;;25.92;56.19;100136.37;105789;1257;72729;-43
2023/06/11 11:19:30;;;;;;;11.00;6.20;;;;;;;25.80;54.95;100104.52;105641;1261;60528;-43